Time;durP1;ratioP1;P1;durP2;ratioP2;P2;SDS_P1;SDS_P2;PMS_P1;PMS_P2;Temp;Humidity;BMP_temperature;BMP_pressure;BME280_temperature;BME280_humidity;BME280_pressure;Samples;Min_cycle;Max_cycle;Signal;HPM_P1;HPM_P2
2022/10/26 04:37:44;;;;;;;6.35;3.35;;;;;;;13.50;84.29;99858.66;1086960;54;20026;-82
2022/10/26 04:38:48;;;;;;;6.00;3.28;;;;;;;13.61;83.74;99857.47;1087005;54;20030;-83
2022/10/26 04:39:52;;;;;;;6.60;3.53;;;;;;;13.59;83.67;99850.59;1087231;54;20086;-84
2022/10/26 04:40:53;;;;;;;7.60;3.70;;;;;;;13.60;83.40;99854.97;1087071;54;20066;-82
2022/10/26 04:41:57;;;;;;;7.90;4.07;;;;;;;13.58;83.86;99855.09;1087865;39;20687;-82
2022/10/26 04:42:59;;;;;;;8.25;4.30;;;;;;;13.58;83.59;99844.34;1087514;54;20054;-82
2022/10/26 04:44:03;;;;;;;9.40;4.45;;;;;;;13.52;83.62;99845.88;1087434;54;20034;-81
2022/10/26 04:45:05;;;;;;;9.05;4.95;;;;;;;13.54;83.69;99843.88;1087415;54;20030;-81
2022/10/26 04:46:12;;;;;;;9.90;4.47;;;;;;;13.53;83.99;99844.03;1087530;54;20042;-83
2022/10/26 04:47:14;;;;;;;7.68;3.65;;;;;;;13.54;83.95;99841.19;1088944;39;20664;-81
2022/10/26 04:48:18;;;;;;;6.05;3.47;;;;;;;13.59;83.51;99845.22;1090535;39;20622;-80
2022/10/26 04:49:19;;;;;;;6.20;3.63;;;;;;;13.57;83.82;99851.59;1088902;46;20057;-80
2022/10/26 04:50:23;;;;;;;6.65;3.65;;;;;;;13.62;83.82;99844.84;1087446;54;20041;-80
2022/10/26 04:51:26;;;;;;;7.30;3.47;;;;;;;13.60;83.47;99846.91;1087824;46;20057;-80
2022/10/26 04:52:30;;;;;;;9.32;4.13;;;;;;;13.57;83.66;99845.38;1087609;54;20038;-83
2022/10/26 04:53:36;;;;;;;5.93;3.55;;;;;;;13.62;83.42;99834.13;1087515;54;20042;-81
2022/10/26 04:54:38;;;;;;;9.88;3.65;;;;;;;13.60;83.59;99838.84;1087472;54;20038;-81
2022/10/26 04:55:43;;;;;;;6.35;3.45;;;;;;;13.64;83.64;99837.47;1087459;54;20042;-82
2022/10/26 04:56:44;;;;;;;8.75;4.40;;;;;;;13.55;83.64;99824.06;1087567;46;20030;-80
2022/10/26 04:57:48;;;;;;;8.57;3.58;;;;;;;13.56;83.71;99823.06;1089513;39;20675;-82
2022/10/26 04:58:55;;;;;;;5.93;3.55;;;;;;;13.59;83.89;99823.72;1087454;54;20061;-81
2022/10/26 04:59:57;;;;;;;10.32;3.45;;;;;;;13.63;83.81;99827.72;1087385;54;20042;-80
2022/10/26 05:01:03;;;;;;;5.90;3.10;;;;;;;13.68;83.46;99822.72;1087464;54;20038;-81
2022/10/26 05:02:04;;;;;;;7.00;3.53;;;;;;;13.70;83.29;99826.91;1087519;54;20014;-81
2022/10/26 05:03:09;;;;;;;7.05;3.30;;;;;;;13.75;83.22;99830.91;1087584;46;20034;-82
2022/10/26 05:04:11;;;;;;;5.18;3.00;;;;;;;13.75;83.09;99822.84;1087975;46;20050;-82
2022/10/26 05:05:15;;;;;;;5.03;3.33;;;;;;;13.75;82.84;99829.06;1087434;54;20082;-82
2022/10/26 05:06:16;;;;;;;8.05;3.97;;;;;;;13.67;83.14;99823.72;1087489;54;20061;-82
2022/10/26 05:07:20;;;;;;;7.97;3.97;;;;;;;13.65;83.20;99823.03;1087493;54;20037;-82
2022/10/26 05:08:22;;;;;;;7.72;3.97;;;;;;;13.65;83.24;99839.97;1087482;54;20034;-83
2022/10/26 05:09:29;;;;;;;7.47;3.70;;;;;;;13.70;83.09;99832.25;1087387;54;20034;-82
2022/10/26 05:10:31;;;;;;;7.95;4.00;;;;;;;13.64;83.40;99842.84;1087315;54;20030;-83
2022/10/26 05:11:35;;;;;;;7.20;4.57;;;;;;;13.67;83.45;99834.47;1087483;54;20035;-82
2022/10/26 05:12:36;;;;;;;7.57;3.72;;;;;;;13.71;83.12;99849.22;1087479;54;20038;-82
2022/10/26 05:13:40;;;;;;;6.10;3.58;;;;;;;13.75;83.20;99839.81;1087484;54;20054;-81
2022/10/26 05:14:42;;;;;;;7.95;3.97;;;;;;;13.70;83.07;99844.84;1087749;46;20030;-82
2022/10/26 05:15:46;;;;;;;9.65;4.22;;;;;;;13.66;83.07;99846.22;1087224;54;20042;-82
2022/10/26 05:16:54;;;;;;;7.38;3.80;;;;;;;13.72;83.06;99842.84;1087462;54;20050;-82
2022/10/26 05:17:56;;;;;;;6.75;3.60;;;;;;;13.71;83.18;99849.22;1087372;54;20058;-82
2022/10/26 05:19:01;;;;;;;7.53;3.90;;;;;;;13.76;82.65;99857.63;1087409;54;20045;-83
2022/10/26 05:20:05;;;;;;;7.22;3.45;;;;;;;13.77;82.64;99851.22;1088022;46;20026;-82
2022/10/26 05:21:11;;;;;;;7.22;3.90;;;;;;;13.78;82.50;99844.00;1087415;54;20114;-83
2022/10/26 05:22:12;;;;;;;6.28;3.47;;;;;;;13.77;82.63;99853.06;1087437;54;20034;-82
2022/10/26 05:23:17;;;;;;;5.97;3.15;;;;;;;13.77;82.55;99843.19;1089860;46;20086;-83
2022/10/26 05:24:19;;;;;;;11.80;3.70;;;;;;;13.77;82.44;99853.06;1087439;54;20050;-83
2022/10/26 05:25:26;;;;;;;7.68;3.13;;;;;;;13.78;82.28;99847.53;1087196;54;20046;-84
2022/10/26 05:26:28;;;;;;;7.80;3.45;;;;;;;13.75;82.45;99844.34;1087493;54;20035;-81
2022/10/26 05:27:32;;;;;;;6.85;3.40;;;;;;;13.78;82.25;99844.00;1087775;46;20010;-83
2022/10/26 05:28:36;;;;;;;5.85;3.50;;;;;;;13.80;82.05;99847.38;1087475;54;20039;-82
2022/10/26 05:29:38;;;;;;;8.70;4.00;;;;;;;13.69;82.49;99856.63;1087442;54;20046;-82
2022/10/26 05:30:43;;;;;;;7.97;3.72;;;;;;;13.64;82.98;99861.66;1087241;54;20022;-82
2022/10/26 05:31:47;;;;;;;8.27;3.85;;;;;;;13.64;83.15;99869.72;1087440;54;20069;-82
2022/10/26 05:32:53;;;;;;;6.18;3.50;;;;;;;13.69;83.13;99862.81;1089522;46;20046;-82
2022/10/26 05:33:57;;;;;;;6.35;3.28;;;;;;;13.75;82.86;99861.31;1087440;54;20049;-81
2022/10/26 05:34:58;;;;;;;6.18;3.60;;;;;;;13.81;82.54;99862.47;1087312;54;20034;-84
2022/10/26 05:36:03;;;;;;;6.28;3.38;;;;;;;13.82;82.45;99853.41;1087296;54;20036;-83
2022/10/26 05:37:04;;;;;;;6.22;3.55;;;;;;;13.80;82.60;99850.88;1087264;54;20034;-82
2022/10/26 05:38:10;;;;;;;6.15;3.50;;;;;;;13.83;82.26;99847.03;1087427;54;20027;-81
2022/10/26 05:39:11;;;;;;;5.43;3.20;;;;;;;13.81;82.09;99839.13;1087400;54;20045;-81
2022/10/26 05:40:16;;;;;;;6.30;3.97;;;;;;;13.83;82.30;99849.72;1087187;54;20050;-81
2022/10/26 05:41:23;;;;;;;7.03;3.85;;;;;;;13.84;82.00;99848.69;1088150;39;20436;-82
2022/10/26 05:42:24;;;;;;;8.70;4.30;;;;;;;13.66;83.19;99867.69;1087379;54;20030;-81
2022/10/26 05:43:29;;;;;;;9.02;4.78;;;;;;;13.59;83.73;99872.91;1087382;54;20034;-82
2022/10/26 05:44:30;;;;;;;8.00;4.40;;;;;;;13.64;83.33;99867.03;1088272;46;20038;-81
2022/10/26 05:45:35;;;;;;;6.97;4.35;;;;;;;13.69;83.02;99862.81;1087325;54;20039;-82
2022/10/26 05:46:36;;;;;;;7.68;4.10;;;;;;;13.69;83.01;99862.00;1087394;54;20121;-81
2022/10/26 05:47:40;;;;;;;9.30;4.65;;;;;;;13.66;83.26;99867.69;1087372;54;20034;-80
2022/10/26 05:48:42;;;;;;;9.18;4.38;;;;;;;13.63;83.37;99873.41;1087343;54;20048;-79
2022/10/26 05:49:47;;;;;;;8.63;4.35;;;;;;;13.56;83.43;99881.28;1088653;46;20126;-80
2022/10/26 05:50:49;;;;;;;9.63;4.30;;;;;;;13.54;83.49;99869.91;1087196;54;20034;-80
2022/10/26 05:51:53;;;;;;;8.63;4.50;;;;;;;13.59;83.63;99874.75;1087381;54;20789;-80
2022/10/26 05:52:54;;;;;;;8.02;3.95;;;;;;;13.63;83.30;99876.94;1087258;54;20065;-79
2022/10/26 05:53:58;;;;;;;6.88;4.18;;;;;;;13.63;83.13;99878.78;1087336;54;20039;-81
2022/10/26 05:55:03;;;;;;;11.20;5.20;;;;;;;13.65;83.36;99879.44;1087398;54;20784;-81
2022/10/26 05:56:19;;;;;;;8.82;4.68;;;;;;;13.50;84.12;99882.81;1087345;54;20018;-79
2022/10/26 05:57:24;;;;;;;9.93;4.80;;;;;;;13.51;84.20;99886.34;1087375;54;20042;-81
2022/10/26 05:58:29;;;;;;;6.90;4.40;;;;;;;13.61;83.78;99886.16;1089324;39;20630;-80
2022/10/26 05:59:34;;;;;;;9.77;5.05;;;;;;;13.68;83.55;99881.81;1089908;39;20720;-84
2022/10/26 06:00:40;;;;;;;7.28;4.28;;;;;;;13.74;83.26;99886.50;1087311;54;20050;-81
2022/10/26 06:01:55;;;;;;;8.00;4.43;;;;;;;13.73;82.85;99879.44;1087459;54;20050;-81
2022/10/26 06:03:18;;;;;;;9.82;4.22;;;;;;;13.70;83.00;99887.81;1087320;54;20061;-82
2022/10/26 06:04:32;;;;;;;6.47;3.47;;;;;;;13.75;82.38;99890.84;1087378;54;20050;-80
2022/10/26 06:05:37;;;;;;;6.65;3.97;;;;;;;13.78;82.87;99889.66;1087322;54;20046;-81
2022/10/26 06:06:46;;;;;;;5.28;3.10;;;;;;;13.85;82.50;99899.59;1088852;47;20041;-81
2022/10/26 06:07:48;;;;;;;5.60;3.33;;;;;;;13.88;82.42;99903.78;1087405;54;20039;-80
2022/10/26 06:08:53;;;;;;;4.95;3.05;;;;;;;13.89;82.21;99905.44;1088378;47;20030;-81
2022/10/26 06:09:57;;;;;;;6.45;3.67;;;;;;;13.93;82.21;99912.19;1090815;31;20665;-81
2022/10/26 06:11:01;;;;;;;6.55;3.92;;;;;;;13.92;82.52;99909.63;1087269;54;20069;-81
2022/10/26 06:12:06;;;;;;;5.28;3.58;;;;;;;13.95;82.44;99914.69;1087723;54;20038;-82
2022/10/26 06:13:14;;;;;;;5.13;3.10;;;;;;;13.99;82.04;99921.38;1087741;54;20035;-84
2022/10/26 06:14:16;;;;;;;6.22;3.30;;;;;;;13.99;81.96;99911.50;1089240;47;20050;-82
2022/10/26 06:15:22;;;;;;;6.97;3.20;;;;;;;14.02;82.11;99929.13;1088398;47;20027;-81
2022/10/26 06:16:35;;;;;;;5.35;3.20;;;;;;;14.01;81.66;99933.66;1089516;47;20049;-82
2022/10/26 06:17:52;;;;;;;6.60;3.38;;;;;;;13.96;82.01;99927.13;1087830;54;20042;-83
2022/10/26 06:19:05;;;;;;;6.15;3.20;;;;;;;13.95;82.07;99931.63;1090431;47;20031;-81
2022/10/26 06:20:25;;;;;;;7.25;3.40;;;;;;;13.91;81.72;99924.09;1087800;54;20050;-83
2022/10/26 06:21:39;;;;;;;5.55;3.00;;;;;;;13.87;81.71;99940.56;1087912;47;20046;-84
2022/10/26 06:23:01;;;;;;;6.80;3.70;;;;;;;13.87;81.75;99934.31;1087400;54;20764;-82
2022/10/26 06:24:13;;;;;;;7.80;3.78;;;;;;;13.86;82.04;99938.88;1087410;54;20034;-82
2022/10/26 06:25:26;;;;;;;7.80;3.30;;;;;;;13.84;82.12;99940.88;1087338;54;20034;-83
2022/10/26 06:26:39;;;;;;;7.13;3.55;;;;;;;13.89;81.79;99943.91;1087742;46;20050;-81
2022/10/26 06:27:46;;;;;;;6.72;3.22;;;;;;;13.89;82.12;99948.44;1087530;54;20046;-82
2022/10/26 06:29:03;;;;;;;6.82;3.83;;;;;;;13.85;82.02;99947.94;1087640;54;20057;-83
2022/10/26 06:30:08;;;;;;;6.45;3.55;;;;;;;13.90;82.10;99944.75;1087665;54;20030;-81
2022/10/26 06:31:14;;;;;;;10.00;3.80;;;;;;;13.87;81.83;99945.94;1087580;54;20437;-80
2022/10/26 06:32:16;;;;;;;5.57;3.72;;;;;;;13.92;81.84;99944.56;1087725;54;20057;-82
2022/10/26 06:33:21;;;;;;;7.30;3.47;;;;;;;13.94;81.63;99946.06;1087700;54;20033;-83
2022/10/26 06:34:27;;;;;;;7.63;3.58;;;;;;;13.98;81.56;99949.28;1087672;54;20038;-82
2022/10/26 06:35:39;;;;;;;5.47;3.30;;;;;;;13.96;81.46;99948.63;1087588;54;20030;-82
2022/10/26 06:36:44;;;;;;;6.63;3.38;;;;;;;13.92;81.82;99945.44;1087506;54;20050;-82
2022/10/26 06:37:46;;;;;;;11.70;4.28;;;;;;;13.94;81.53;99948.75;1087996;46;20039;-81
2022/10/26 06:38:52;;;;;;;6.00;3.83;;;;;;;13.96;81.47;99948.63;1087635;54;20031;-82
2022/10/26 06:39:56;;;;;;;8.25;3.85;;;;;;;13.95;81.63;99946.94;1087633;54;20041;-83
2022/10/26 06:41:01;;;;;;;8.75;3.67;;;;;;;14.00;81.59;99945.41;1087320;54;20078;-82
2022/10/26 06:42:03;;;;;;;5.25;3.70;;;;;;;14.02;81.38;99953.31;1087719;54;20069;-81
2022/10/26 06:43:14;;;;;;;6.70;3.33;;;;;;;14.07;81.32;99956.34;1087673;54;20133;-83
2022/10/26 06:44:21;;;;;;;7.75;3.60;;;;;;;14.08;81.28;99959.84;1087655;54;20039;-82
2022/10/26 06:45:26;;;;;;;8.00;3.28;;;;;;;14.13;81.01;99958.34;1087600;54;20034;-82
2022/10/26 06:46:38;;;;;;;9.18;3.20;;;;;;;14.14;81.02;99957.31;1087548;54;20065;-82
2022/10/26 06:47:50;;;;;;;6.47;3.30;;;;;;;14.16;81.06;99960.69;1087712;54;20023;-81
2022/10/26 06:48:57;;;;;;;7.57;3.20;;;;;;;14.18;80.72;99960.50;1087695;54;20034;-82
2022/10/26 06:50:13;;;;;;;5.65;3.03;;;;;;;14.20;80.95;99964.69;1087706;54;20019;-82
2022/10/26 06:51:17;;;;;;;6.13;3.10;;;;;;;14.22;80.92;99969.91;1088029;46;20793;-83
2022/10/26 06:52:29;;;;;;;5.15;2.88;;;;;;;14.24;80.57;99972.44;1087585;54;20034;-84
2022/10/26 06:53:40;;;;;;;6.78;3.20;;;;;;;14.21;80.87;99968.25;1087640;54;20045;-80
2022/10/26 06:54:47;;;;;;;7.43;3.40;;;;;;;14.18;80.84;99968.56;1087667;54;20114;-81
2022/10/26 06:55:53;;;;;;;8.88;4.28;;;;;;;14.19;80.74;99971.09;1087672;54;20038;-83
2022/10/26 06:56:55;;;;;;;8.57;3.55;;;;;;;14.16;81.19;99971.44;1090116;39;20688;-81
2022/10/26 06:57:59;;;;;;;9.02;3.60;;;;;;;14.17;81.15;99967.72;1087694;54;20035;-82
2022/10/26 06:59:10;;;;;;;5.82;3.40;;;;;;;14.16;81.06;99966.06;1087669;54;20057;-81
2022/10/26 07:00:23;;;;;;;8.73;4.00;;;;;;;14.13;81.38;99971.78;1088204;46;20034;-81
2022/10/26 07:01:28;;;;;;;6.32;3.92;;;;;;;14.16;81.40;99971.44;1087717;54;20039;-84
2022/10/26 07:02:30;;;;;;;6.18;3.47;;;;;;;14.13;80.99;99966.41;1087914;46;20027;-82
2022/10/26 07:03:34;;;;;;;6.20;3.65;;;;;;;14.12;81.25;99972.78;1087686;54;20031;-83
2022/10/26 07:04:39;;;;;;;6.60;3.95;;;;;;;14.14;81.06;99976.16;1087687;54;20038;-81
2022/10/26 07:05:44;;;;;;;9.52;3.92;;;;;;;14.12;81.29;99978.16;1087608;54;20046;-81
2022/10/26 07:06:45;;;;;;;6.57;3.60;;;;;;;14.09;81.10;99969.59;1087704;54;20035;-82
2022/10/26 07:07:50;;;;;;;6.38;3.85;;;;;;;14.08;81.59;99968.75;1087597;54;20031;-81
2022/10/26 07:08:54;;;;;;;8.05;3.95;;;;;;;14.13;81.59;99976.28;1087635;54;20030;-83
2022/10/26 07:10:00;;;;;;;6.95;3.80;;;;;;;14.14;81.18;99973.47;1087551;54;20018;-81
2022/10/26 07:11:03;;;;;;;7.50;3.92;;;;;;;14.17;81.21;99970.41;1087575;54;20034;-83
2022/10/26 07:12:08;;;;;;;9.00;3.50;;;;;;;14.18;81.50;99979.31;1087616;54;20049;-82
2022/10/26 07:13:10;;;;;;;7.53;3.30;;;;;;;14.19;81.19;99976.47;1087748;47;20030;-82
2022/10/26 07:14:14;;;;;;;7.15;3.97;;;;;;;14.18;81.60;99976.63;1087662;54;20042;-80
2022/10/26 07:15:19;;;;;;;8.27;3.42;;;;;;;14.22;81.77;99979.81;1087645;54;20058;-83
2022/10/26 07:16:23;;;;;;;7.68;4.00;;;;;;;14.23;81.38;99976.97;1087653;54;20097;-80
2022/10/26 07:17:29;;;;;;;6.70;3.53;;;;;;;14.29;81.61;99975.44;1087580;54;20046;-82
2022/10/26 07:18:31;;;;;;;7.72;3.40;;;;;;;14.28;81.59;99985.38;1087576;54;20034;-81
2022/10/26 07:19:35;;;;;;;5.97;3.15;;;;;;;14.35;81.00;99985.53;1087671;54;20035;-84
2022/10/26 07:20:38;;;;;;;6.82;3.80;;;;;;;14.38;81.21;99990.53;1087462;54;20038;-82
2022/10/26 07:21:44;;;;;;;6.63;3.05;;;;;;;14.44;81.28;99984.50;1087586;54;20034;-83
2022/10/26 07:22:54;;;;;;;7.30;3.67;;;;;;;14.47;80.87;99986.81;1089974;39;20708;-83
2022/10/26 07:23:59;;;;;;;8.30;3.35;;;;;;;14.53;81.09;99990.69;1087594;54;20157;-82
2022/10/26 07:25:01;;;;;;;5.57;3.47;;;;;;;14.56;80.80;99984.97;1087623;54;20038;-82
2022/10/26 07:26:05;;;;;;;6.82;3.17;;;;;;;14.54;80.97;99981.59;1087570;54;20042;-82
2022/10/26 07:27:07;;;;;;;6.78;3.78;;;;;;;14.51;81.07;99988.19;1087581;54;20061;-83
2022/10/26 07:28:12;;;;;;;6.05;3.17;;;;;;;14.59;80.81;99987.31;1088059;46;20034;-82
2022/10/26 07:29:16;;;;;;;6.75;3.60;;;;;;;14.63;80.47;99982.44;1089927;46;20030;-84
2022/10/26 07:30:25;;;;;;;5.38;3.30;;;;;;;14.63;80.79;99980.56;1087580;54;20077;-82
2022/10/26 07:31:27;;;;;;;6.85;3.40;;;;;;;14.65;80.60;99978.56;1088158;39;20598;-82
2022/10/26 07:32:31;;;;;;;7.30;3.60;;;;;;;14.72;80.22;99975.19;1087572;54;20037;-81
2022/10/26 07:33:36;;;;;;;7.65;3.90;;;;;;;14.72;80.49;99981.44;1087563;54;20038;-82
2022/10/26 07:34:40;;;;;;;5.80;3.60;;;;;;;14.78;80.35;99988.78;1087645;54;20046;-82
2022/10/26 07:35:41;;;;;;;5.88;3.08;;;;;;;14.82;80.33;99986.59;1087581;54;20035;-83
2022/10/26 07:36:46;;;;;;;7.57;4.03;;;;;;;14.70;80.69;99988.81;1089435;39;20626;-86
2022/10/26 07:37:47;;;;;;;7.35;3.97;;;;;;;14.72;81.00;99985.94;1087598;54;20034;-81
2022/10/26 07:38:53;;;;;;;7.93;3.92;;;;;;;14.76;80.85;99990.81;1087510;54;20077;-83
2022/10/26 07:39:55;;;;;;;7.97;4.00;;;;;;;14.72;81.04;99986.81;1087942;46;20057;-82
2022/10/26 07:40:59;;;;;;;7.35;4.20;;;;;;;14.75;80.73;99985.63;1088286;39;20664;-81
2022/10/26 07:42:04;;;;;;;6.10;4.00;;;;;;;14.83;80.58;99988.28;1087550;54;20034;-81
2022/10/26 07:43:05;;;;;;;9.73;4.65;;;;;;;14.74;80.98;99984.75;1087546;54;20038;-82
2022/10/26 07:44:10;;;;;;;6.50;4.22;;;;;;;14.83;80.84;99999.03;1087602;54;20035;-82
2022/10/26 07:45:11;;;;;;;7.82;3.90;;;;;;;14.80;81.11;99994.84;1087451;54;20034;-82
2022/10/26 07:46:18;;;;;;;6.60;3.92;;;;;;;14.87;80.76;99992.31;1087539;54;20037;-81
2022/10/26 07:47:20;;;;;;;9.35;4.15;;;;;;;14.77;80.78;100000.56;1087566;54;20050;-80
2022/10/26 07:48:24;;;;;;;7.63;3.95;;;;;;;14.76;81.18;99995.38;1087595;54;20030;-82
2022/10/26 07:49:26;;;;;;;7.57;3.38;;;;;;;14.86;80.54;99996.00;1087530;54;20030;-81
2022/10/26 07:50:30;;;;;;;6.30;3.45;;;;;;;14.87;80.30;99999.53;1087371;54;20042;-80
2022/10/26 07:51:35;;;;;;;7.93;3.78;;;;;;;14.97;79.97;99995.59;1087501;54;20057;-80
2022/10/26 07:52:40;;;;;;;8.95;3.50;;;;;;;15.02;80.00;99999.63;1087628;54;20061;-81
2022/10/26 07:53:42;;;;;;;8.05;2.95;;;;;;;15.07;79.79;100006.16;1087805;46;20053;-81
2022/10/26 07:54:46;;;;;;;6.45;2.90;;;;;;;14.96;79.71;100004.72;1087537;54;20042;-81
2022/10/26 07:55:55;;;;;;;7.28;2.78;;;;;;;15.04;79.39;100014.59;1087435;54;20035;-80
2022/10/26 07:56:57;;;;;;;5.97;2.50;;;;;;;15.13;79.43;100005.47;1087975;46;20030;-80
2022/10/26 07:58:01;;;;;;;5.85;2.47;;;;;;;15.22;78.99;100013.50;1087580;54;20034;-81
2022/10/26 07:59:03;;;;;;;5.22;2.35;;;;;;;15.31;78.73;100007.06;1087556;54;20035;-82
2022/10/26 08:00:11;;;;;;;5.15;2.22;;;;;;;15.38;78.28;100009.88;1087503;54;20042;-79
2022/10/26 08:01:19;;;;;;;5.53;2.80;;;;;;;15.43;78.03;100000.25;1087470;54;20038;-81
2022/10/26 08:02:20;;;;;;;4.65;2.40;;;;;;;15.42;78.04;100014.72;1087580;54;20039;-81
2022/10/26 08:03:25;;;;;;;4.75;2.40;;;;;;;15.47;78.08;100011.50;1087473;54;20746;-82
2022/10/26 08:04:26;;;;;;;5.82;2.30;;;;;;;15.46;77.69;100007.13;1090051;39;20660;-82
2022/10/26 08:05:31;;;;;;;6.80;2.20;;;;;;;15.55;77.80;100016.03;1087555;46;20102;-80
2022/10/26 08:06:32;;;;;;;5.63;2.30;;;;;;;15.60;77.34;100013.63;1087544;54;20035;-82
2022/10/26 08:07:42;;;;;;;5.35;2.70;;;;;;;15.67;77.23;100019.13;1087518;54;20094;-82
2022/10/26 08:08:46;;;;;;;5.00;2.65;;;;;;;15.67;77.11;100014.59;1087568;54;20048;-83
2022/10/26 08:09:50;;;;;;;6.38;3.10;;;;;;;15.69;77.16;100012.53;1089039;39;20693;-82
2022/10/26 08:10:52;;;;;;;7.13;2.95;;;;;;;15.78;76.77;99999.00;1087350;54;20034;-80
2022/10/26 08:11:56;;;;;;;5.80;2.17;;;;;;;15.78;76.73;100018.72;1087449;54;20030;-82
2022/10/26 08:12:57;;;;;;;6.97;3.08;;;;;;;15.75;76.81;100024.47;1087541;54;20053;-81
2022/10/26 08:14:02;;;;;;;5.75;2.90;;;;;;;15.87;76.77;100014.97;1087488;54;20031;-81
2022/10/26 08:15:05;;;;;;;7.30;2.83;;;;;;;15.95;76.35;100019.47;1087537;54;20055;-82
2022/10/26 08:16:09;;;;;;;6.00;2.58;;;;;;;16.01;76.05;100021.44;1087541;54;20037;-80
2022/10/26 08:17:13;;;;;;;6.82;3.25;;;;;;;16.04;76.00;100022.94;1087447;54;20034;-82
2022/10/26 08:18:18;;;;;;;5.65;2.42;;;;;;;16.02;76.17;100019.56;1087543;54;20049;-81
2022/10/26 08:19:20;;;;;;;6.82;2.85;;;;;;;16.09;76.04;100025.09;1087487;54;20031;-82
2022/10/26 08:20:24;;;;;;;6.90;3.15;;;;;;;15.98;76.21;100024.50;1087533;54;20094;-82
2022/10/26 08:21:25;;;;;;;7.10;3.08;;;;;;;16.02;76.08;100020.44;1087526;54;20181;-82
2022/10/26 08:22:31;;;;;;;8.43;3.88;;;;;;;16.13;75.72;100021.84;1087442;54;20035;-82
2022/10/26 08:23:32;;;;;;;8.00;3.15;;;;;;;16.14;75.90;100031.59;1091163;39;20970;-81
2022/10/26 08:24:37;;;;;;;8.30;3.38;;;;;;;16.23;75.42;100029.69;1087616;54;20030;-81
2022/10/26 08:25:38;;;;;;;10.45;4.10;;;;;;;16.14;75.54;100028.09;1087562;54;20035;-79
2022/10/26 21:41:53;;;;;;;;;;;;;;;14.46;81.14;100633.38;1089356;54;20027;-83
2022/10/26 22:26:47;;;;;;;8.63;5.53;;;;;;;14.15;80.96;100649.94;1088314;54;20033;-78
2022/10/26 22:27:48;;;;;;;9.85;5.00;;;;;;;14.19;80.63;100650.47;1089354;54;20085;-79
2022/10/26 22:28:55;;;;;;;8.82;4.97;;;;;;;14.30;80.53;100652.06;1089154;54;20030;-78
2022/10/26 22:29:56;;;;;;;9.13;5.03;;;;;;;14.33;80.11;100651.75;1089346;54;20042;-79
2022/10/26 22:31:03;;;;;;;6.90;4.70;;;;;;;14.38;80.14;100649.44;1089419;54;20034;-79
2022/10/26 22:32:05;;;;;;;7.13;4.45;;;;;;;14.39;79.97;100655.69;1089189;54;20387;-79
2022/10/26 22:33:09;;;;;;;8.63;4.95;;;;;;;14.32;79.97;100650.91;1089294;54;20035;-78
2022/10/26 22:34:16;;;;;;;6.90;4.63;;;;;;;14.39;79.89;100653.00;1090058;38;20530;-78
2022/10/26 22:35:18;;;;;;;9.00;4.45;;;;;;;14.42;79.83;100648.16;1089223;54;20054;-79
2022/10/26 22:36:24;;;;;;;8.10;4.10;;;;;;;14.47;79.64;100658.44;1089317;54;20064;-78
2022/10/26 22:37:25;;;;;;;7.40;4.10;;;;;;;14.50;79.23;100650.91;1089507;54;20034;-78
2022/10/26 22:38:30;;;;;;;6.60;4.22;;;;;;;14.52;79.11;100653.41;1089895;54;20056;-79
2022/10/26 22:39:34;;;;;;;8.38;3.70;;;;;;;14.54;79.42;100650.59;1089682;54;20053;-79
2022/10/26 22:40:36;;;;;;;8.25;4.60;;;;;;;14.53;78.94;100649.72;1089919;54;20064;-80
2022/10/26 22:41:40;;;;;;;9.68;3.92;;;;;;;14.51;79.22;100652.59;1090552;46;20089;-78
2022/10/26 22:42:45;;;;;;;6.80;4.05;;;;;;;14.53;78.88;100651.59;1089893;54;20069;-80
2022/10/26 22:43:49;;;;;;;5.43;3.50;;;;;;;14.56;79.15;100657.50;1091057;46;20026;-79
2022/10/26 22:44:52;;;;;;;7.72;4.10;;;;;;;14.55;79.32;100654.97;1091695;46;20060;-79
2022/10/26 22:46:03;;;;;;;8.70;4.85;;;;;;;14.50;79.06;100656.28;1089806;54;20094;-78
2022/10/26 22:47:04;;;;;;;8.02;4.18;;;;;;;14.49;79.02;100641.13;1090136;46;20064;-78
2022/10/26 22:48:08;;;;;;;6.53;4.05;;;;;;;14.54;79.05;100650.59;1089257;54;20030;-78
2022/10/26 22:49:13;;;;;;;8.23;4.53;;;;;;;14.54;79.27;100653.28;1089252;54;20077;-79
2022/10/26 22:50:15;;;;;;;8.23;4.70;;;;;;;14.56;78.84;100646.75;1089199;54;20045;-78
2022/10/26 22:51:21;;;;;;;6.55;4.13;;;;;;;14.60;78.89;100656.16;1087933;54;20035;-78
2022/10/26 22:52:22;;;;;;;7.70;4.38;;;;;;;14.54;78.78;100651.44;1087750;54;20179;-78
2022/10/26 22:53:27;;;;;;;9.45;4.65;;;;;;;14.39;79.25;100650.31;1087676;54;20644;-78
2022/10/26 22:54:28;;;;;;;10.18;5.30;;;;;;;14.24;80.06;100652.69;1087728;54;20030;-78
2022/10/26 22:55:32;;;;;;;16.35;6.15;;;;;;;14.11;80.42;100653.06;1089198;39;20658;-79
2022/10/26 22:56:37;;;;;;;9.73;6.10;;;;;;;14.02;80.61;100655.69;1087898;54;20741;-79
2022/10/26 22:57:39;;;;;;;8.30;5.43;;;;;;;13.99;80.73;100652.44;1087695;54;20046;-78
2022/10/26 22:58:45;;;;;;;9.73;5.30;;;;;;;14.07;80.47;100660.59;1087833;54;20131;-78
2022/10/26 22:59:49;;;;;;;8.18;5.30;;;;;;;14.14;79.99;100653.63;1087685;54;20110;-78
2022/10/26 23:00:51;;;;;;;9.32;4.70;;;;;;;14.20;80.03;100655.69;1087741;54;20046;-78
2022/10/26 23:01:55;;;;;;;9.38;4.60;;;;;;;14.25;79.50;100657.06;1087587;54;20038;-78
2022/10/26 23:02:58;;;;;;;7.35;4.35;;;;;;;14.24;79.68;100650.84;1087781;54;20075;-78
2022/10/26 23:04:02;;;;;;;10.00;5.15;;;;;;;14.21;79.42;100651.16;1087797;54;20049;-79
2022/10/26 23:05:05;;;;;;;8.73;4.50;;;;;;;14.17;79.76;100647.06;1087791;54;20717;-78
2022/10/26 23:06:10;;;;;;;8.57;5.25;;;;;;;14.19;79.48;100647.78;1087814;54;20041;-78
2022/10/26 23:07:12;;;;;;;10.25;5.13;;;;;;;14.13;79.67;100646.53;1087435;54;20069;-80
2022/10/26 23:08:16;;;;;;;7.38;4.15;;;;;;;14.24;79.36;100644.63;1087428;54;20035;-79
2022/10/26 23:09:20;;;;;;;5.70;3.95;;;;;;;14.28;79.10;100641.47;1088209;31;20556;-78
2022/10/26 23:10:22;;;;;;;7.25;4.18;;;;;;;14.25;79.21;100649.00;1087388;46;20039;-79
2022/10/26 23:11:29;;;;;;;9.70;4.72;;;;;;;14.07;79.72;100649.84;1087336;54;20041;-78
2022/10/26 23:12:30;;;;;;;11.90;5.32;;;;;;;13.88;80.71;100651.69;1087597;39;21089;-80
2022/10/26 23:13:34;;;;;;;8.73;5.32;;;;;;;13.82;81.17;100651.44;1087366;54;20984;-78
2022/10/26 23:14:38;;;;;;;10.18;5.45;;;;;;;13.89;80.62;100655.19;1087457;54;20054;-79
2022/10/26 23:15:42;;;;;;;9.65;5.00;;;;;;;13.95;80.71;100656.44;1087240;47;20046;-78
2022/10/26 23:16:44;;;;;;;7.78;4.57;;;;;;;14.00;80.42;100654.13;1087619;54;20019;-78
2022/10/26 23:17:48;;;;;;;9.00;4.65;;;;;;;13.99;79.85;100657.81;1087546;54;20037;-78
2022/10/26 23:18:52;;;;;;;7.72;4.65;;;;;;;13.94;80.32;100652.06;1087777;54;20030;-78
2022/10/26 23:20:02;;;;;;;7.10;4.43;;;;;;;13.88;80.43;100656.19;1087655;54;20081;-78
2022/10/26 23:21:05;;;;;;;7.88;5.05;;;;;;;13.74;80.92;100662.94;1087877;54;20729;-78
2022/10/26 23:22:09;;;;;;;15.13;5.22;;;;;;;13.67;81.26;100661.84;1087646;54;20045;-78
2022/10/26 23:23:10;;;;;;;11.63;4.95;;;;;;;13.69;81.24;100651.81;1087693;54;20038;-78
2022/10/26 23:24:15;;;;;;;11.05;5.65;;;;;;;13.70;81.42;100664.22;1089678;39;20943;-78
2022/10/26 23:25:16;;;;;;;8.52;5.47;;;;;;;13.77;81.14;100656.41;1087639;54;20038;-78
2022/10/26 23:26:22;;;;;;;7.15;4.72;;;;;;;13.77;80.69;100654.56;1087665;54;20041;-79
2022/10/26 23:27:24;;;;;;;11.48;5.60;;;;;;;13.77;80.63;100657.25;1086992;54;20038;-79
2022/10/26 23:28:28;;;;;;;10.32;5.30;;;;;;;13.80;80.57;100654.25;1090173;39;20218;-78
2022/10/26 23:29:29;;;;;;;9.18;4.88;;;;;;;13.75;80.95;100661.06;1087560;54;20073;-79
2022/10/26 23:30:36;;;;;;;11.10;4.75;;;;;;;13.62;81.22;100659.59;1087682;54;20034;-78
2022/10/26 23:31:38;;;;;;;8.77;4.60;;;;;;;13.60;81.18;100656.22;1087570;54;20035;-78
2022/10/26 23:32:42;;;;;;;9.90;5.15;;;;;;;13.52;81.78;100662.31;1087574;54;20045;-78
2022/10/26 23:33:43;;;;;;;9.82;5.50;;;;;;;13.41;82.24;100659.88;1087629;54;20039;-79
2022/10/26 23:34:47;;;;;;;9.70;5.38;;;;;;;13.37;82.41;100663.78;1087564;54;20023;-79
2022/10/26 23:35:49;;;;;;;14.50;5.82;;;;;;;13.40;82.42;100660.84;1087718;46;20729;-79
2022/10/26 23:36:53;;;;;;;9.63;4.90;;;;;;;13.36;82.38;100660.28;1087571;54;20041;-79
2022/10/26 23:37:56;;;;;;;13.00;5.35;;;;;;;13.30;82.90;100673.44;1087554;54;20073;-79
2022/10/26 23:39:00;;;;;;;9.30;5.38;;;;;;;13.34;82.66;100670.31;1087625;54;20058;-79